Time;durP1;ratioP1;P1;durP2;ratioP2;P2;SDS_P1;SDS_P2;PMS_P1;PMS_P2;Temp;Humidity;BMP_temperature;BMP_pressure;BME280_temperature;BME280_humidity;BME280_pressure;Samples;Min_cycle;Max_cycle;Signal;HPM_P1;HPM_P2
2022/12/14 00:01:08;;;;;;;10.32;4.72;;;0.70;97.70;;;;;;4996971;28;20606;-80
2022/12/14 00:03:35;;;;;;;9.15;4.47;;;0.70;97.70;;;;;;4971581;28;20415;-80
2022/12/14 00:06:12;;;;;;;9.93;4.57;;;0.80;97.70;;;;;;5016697;28;20342;-80
2022/12/14 00:08:38;;;;;;;12.37;4.10;;;0.70;97.50;;;;;;5021415;28;20482;-80
2022/12/14 00:11:04;;;;;;;9.23;4.05;;;0.80;97.60;;;;;;5031516;28;20037;-80
2022/12/14 00:13:30;;;;;;;10.07;4.93;;;0.80;97.60;;;;;;5029029;28;20036;-80
2022/12/14 00:15:55;;;;;;;8.97;4.03;;;0.80;97.60;;;;;;4974293;28;20166;-80
2022/12/14 00:18:21;;;;;;;10.73;4.13;;;0.70;97.40;;;;;;5026898;28;20029;-80
2022/12/14 00:20:47;;;;;;;11.30;4.55;;;0.80;97.50;;;;;;4959704;28;20033;-80
2022/12/14 00:23:13;;;;;;;11.02;4.70;;;0.70;97.30;;;;;;5034514;28;20359;-80
2022/12/14 00:25:39;;;;;;;9.07;3.97;;;0.70;97.10;;;;;;4987422;28;20040;-80
2022/12/14 00:28:05;;;;;;;9.88;4.35;;;0.70;97.00;;;;;;5025597;28;20214;-80
2022/12/14 00:30:31;;;;;;;10.00;4.07;;;0.70;96.90;;;;;;4972312;28;20036;-79
2022/12/14 00:32:56;;;;;;;8.23;3.77;;;0.60;96.80;;;;;;4994621;28;20028;-80
2022/12/14 00:35:22;;;;;;;9.53;4.10;;;0.60;96.70;;;;;;5001783;28;20021;-80
2022/12/14 00:37:48;;;;;;;9.35;3.88;;;0.60;97.10;;;;;;4990343;28;20513;-80
2022/12/14 00:40:14;;;;;;;9.32;4.15;;;0.60;96.70;;;;;;4998352;28;20086;-80
2022/12/14 00:42:39;;;;;;;8.77;4.27;;;0.60;96.60;;;;;;4995929;28;20013;-80
2022/12/14 00:45:07;;;;;;;8.85;4.05;;;0.60;96.60;;;;;;4990665;28;20593;-80
2022/12/14 00:47:33;;;;;;;7.97;3.50;;;0.50;96.50;;;;;;5008238;28;20025;-80
2022/12/14 00:49:59;;;;;;;9.90;4.28;;;0.50;96.50;;;;;;4995682;28;20022;-80
2022/12/14 00:52:24;;;;;;;9.38;4.20;;;0.50;96.50;;;;;;4996486;28;20525;-80
2022/12/14 00:54:50;;;;;;;9.80;4.23;;;0.50;96.50;;;;;;4995535;28;20027;-79
2022/12/14 00:57:15;;;;;;;8.03;3.67;;;0.50;96.50;;;;;;4993144;28;20609;-80
2022/12/14 00:59:41;;;;;;;10.82;4.05;;;0.50;96.60;;;;;;5028622;28;20370;-80
2022/12/14 01:02:07;;;;;;;9.07;4.37;;;0.50;96.60;;;;;;5004117;28;20687;-80
2022/12/14 01:04:33;;;;;;;8.30;3.92;;;0.50;96.60;;;;;;5030100;28;20061;-80
2022/12/14 01:06:58;;;;;;;9.43;4.07;;;0.50;96.60;;;;;;4997880;28;20029;-79
2022/12/14 01:09:25;;;;;;;8.87;4.03;;;0.40;96.60;;;;;;5015405;28;20234;-79
2022/12/14 01:11:52;;;;;;;9.13;3.78;;;0.40;96.50;;;;;;5000672;28;20047;-79
2022/12/14 01:14:19;;;;;;;9.95;3.85;;;0.40;96.60;;;;;;5010398;28;20126;-79
2022/12/14 01:16:45;;;;;;;10.03;4.30;;;0.40;96.60;;;;;;5010577;28;20043;-80
2022/12/14 01:19:12;;;;;;;8.68;3.67;;;0.40;96.60;;;;;;5010088;28;20025;-79
2022/12/14 01:21:38;;;;;;;9.65;4.00;;;0.40;96.60;;;;;;5010822;28;20029;-79
2022/12/14 01:24:05;;;;;;;8.70;3.97;;;0.40;96.60;;;;;;4976045;28;20047;-79
2022/12/14 01:26:35;;;;;;;10.80;4.57;;;0.40;96.70;;;;;;5014042;28;20037;-80
2022/12/14 01:29:01;;;;;;;9.25;4.13;;;0.40;96.70;;;;;;5014168;28;20111;-79
2022/12/14 01:31:33;;;;;;;9.35;3.83;;;0.40;96.80;;;;;;5037122;28;20268;-80
2022/12/14 01:34:00;;;;;;;9.48;4.43;;;0.40;96.90;;;;;;4974559;28;20072;-79
2022/12/14 01:36:28;;;;;;;10.20;4.00;;;0.40;97.00;;;;;;5029119;28;20107;-79
2022/12/14 01:38:57;;;;;;;8.93;3.53;;;0.50;97.10;;;;;;4991808;28;20028;-79
2022/12/14 01:41:35;;;;;;;9.57;3.90;;;0.50;97.10;;;;;;5017902;28;20036;-79
2022/12/14 01:44:23;;;;;;;8.50;3.72;;;0.50;97.00;;;;;;5015381;28;20029;-80
2022/12/14 01:47:20;;;;;;;9.23;3.72;;;0.50;97.10;;;;;;5014866;28;20029;-79
2022/12/14 01:50:07;;;;;;;9.50;3.77;;;0.50;96.90;;;;;;5037013;28;20086;-80
2022/12/14 01:52:38;;;;;;;9.27;3.75;;;0.60;97.00;;;;;;4985810;28;20032;-79
2022/12/14 01:55:12;;;;;;;9.43;3.78;;;0.60;97.10;;;;;;5034462;28;20029;-79
2022/12/14 01:57:40;;;;;;;9.00;3.97;;;0.60;97.20;;;;;;5016567;28;20025;-79
2022/12/14 02:00:08;;;;;;;8.85;3.90;;;0.60;97.20;;;;;;5032550;28;20061;-79
2022/12/14 02:02:36;;;;;;;10.03;3.70;;;0.60;97.20;;;;;;5018850;28;20171;-79
2022/12/14 02:05:04;;;;;;;10.05;4.15;;;0.60;97.30;;;;;;4966993;28;20121;-79
2022/12/14 02:07:31;;;;;;;10.02;4.20;;;0.60;97.20;;;;;;5017274;28;20052;-80
2022/12/14 02:10:01;;;;;;;8.82;4.13;;;0.70;97.20;;;;;;4967237;28;20060;-80
2022/12/14 02:12:41;;;;;;;9.60;4.20;;;0.70;97.10;;;;;;4989140;28;20244;-79
2022/12/14 02:15:08;;;;;;;9.47;3.80;;;0.70;97.10;;;;;;5036413;28;20104;-79
2022/12/14 02:17:34;;;;;;;7.70;3.58;;;0.70;97.10;;;;;;5031800;28;20021;-79
2022/12/14 02:20:02;;;;;;;8.75;3.95;;;0.70;97.10;;;;;;5007828;28;20032;-79
2022/12/14 02:22:40;;;;;;;9.27;4.03;;;0.70;97.10;;;;;;5008558;28;20144;-79
2022/12/14 02:25:43;;;;;;;8.57;3.93;;;0.70;97.20;;;;;;4986004;28;20092;-79
2022/12/14 02:28:52;;;;;;;8.05;3.67;;;0.70;97.00;;;;;;4973154;28;20025;-79
2022/12/14 02:31:53;;;;;;;7.65;3.30;;;0.70;97.00;;;;;;5030500;28;20571;-79
2022/12/14 02:34:56;;;;;;;8.32;3.67;;;0.70;97.00;;;;;;4969777;28;20766;-79
2022/12/14 02:37:58;;;;;;;9.85;3.55;;;0.70;97.00;;;;;;4967600;28;20036;-79
2022/12/14 02:40:36;;;;;;;7.50;3.43;;;0.70;96.90;;;;;;4896978;28;20502;-79
2022/12/14 02:43:15;;;;;;;9.35;3.90;;;0.70;97.20;;;;;;5008986;28;20136;-79
2022/12/14 02:46:15;;;;;;;8.95;3.83;;;0.80;97.20;;;;;;5013969;28;20048;-79
2022/12/14 02:48:50;;;;;;;8.93;4.00;;;0.70;97.20;;;;;;4980677;28;20374;-79
2022/12/14 02:51:37;;;;;;;9.10;3.80;;;0.80;97.20;;;;;;4990496;28;20013;-79
2022/12/14 02:54:12;;;;;;;9.00;3.47;;;0.80;97.20;;;;;;5013143;28;20535;-79
2022/12/14 02:56:47;;;;;;;8.05;3.35;;;0.80;97.30;;;;;;4986502;28;20140;-79
2022/12/14 02:59:15;;;;;;;7.85;3.65;;;0.80;97.30;;;;;;5010737;28;20049;-79
2022/12/14 03:01:42;;;;;;;9.82;4.10;;;0.70;97.30;;;;;;5000431;28;20533;-79
2022/12/14 03:04:08;;;;;;;9.95;4.25;;;0.80;97.30;;;;;;5029017;28;20516;-79
2022/12/14 03:06:34;;;;;;;9.33;4.10;;;0.80;97.30;;;;;;5013288;28;20033;-79
2022/12/14 03:09:12;;;;;;;10.60;4.47;;;0.80;97.30;;;;;;5025106;28;20025;-79
2022/12/14 03:12:08;;;;;;;10.63;4.20;;;0.80;97.20;;;;;;5001490;28;20060;-79
2022/12/14 03:14:39;;;;;;;9.57;4.20;;;0.80;97.20;;;;;;5025338;28;20032;-79
2022/12/14 03:17:19;;;;;;;8.93;3.83;;;0.80;97.20;;;;;;5025822;28;20037;-79
2022/12/14 03:20:00;;;;;;;8.88;3.50;;;0.80;97.20;;;;;;4999739;28;20029;-79
2022/12/14 03:22:38;;;;;;;9.30;3.92;;;0.80;97.20;;;;;;4974649;28;20247;-79
2022/12/14 03:25:14;;;;;;;8.27;3.97;;;0.80;97.30;;;;;;4999377;28;20107;-79
2022/12/14 03:27:49;;;;;;;8.45;4.03;;;0.80;97.20;;;;;;5030606;28;20549;-79
2022/12/14 03:30:17;;;;;;;9.80;3.87;;;0.80;97.30;;;;;;4995816;28;20029;-79
2022/12/14 03:32:49;;;;;;;8.75;4.15;;;0.80;97.40;;;;;;5026449;28;20474;-79
2022/12/14 03:35:19;;;;;;;8.82;3.80;;;0.80;97.40;;;;;;4996575;28;20548;-79
2022/12/14 03:38:01;;;;;;;10.30;4.35;;;0.80;97.60;;;;;;4992954;28;20453;-79
2022/12/14 03:40:36;;;;;;;7.88;3.90;;;0.90;97.40;;;;;;5000486;28;20111;-79
2022/12/14 03:43:06;;;;;;;7.93;3.60;;;0.90;97.40;;;;;;4995861;28;20425;-79
2022/12/14 03:45:43;;;;;;;9.48;3.92;;;0.90;97.50;;;;;;4990026;28;20037;-79
2022/12/14 03:48:27;;;;;;;7.90;3.70;;;0.90;97.30;;;;;;5011366;28;20381;-78
2022/12/14 03:51:08;;;;;;;9.43;4.00;;;0.90;97.30;;;;;;4998619;28;20159;-79
2022/12/14 03:53:48;;;;;;;8.50;4.07;;;0.90;97.30;;;;;;4988499;28;20033;-79
2022/12/14 03:56:29;;;;;;;8.17;3.30;;;0.90;97.30;;;;;;5008954;28;20033;-79
2022/12/14 03:59:11;;;;;;;8.35;3.58;;;0.90;97.40;;;;;;5011402;28;20056;-79
2022/12/14 04:02:04;;;;;;;9.38;3.63;;;0.90;97.20;;;;;;5011370;28;20069;-79
2022/12/14 04:04:42;;;;;;;8.98;3.72;;;0.90;97.30;;;;;;5013925;28;21209;-78
2022/12/14 04:07:24;;;;;;;9.48;3.50;;;1.00;97.30;;;;;;5009623;28;20036;-78
2022/12/14 04:09:59;;;;;;;8.27;3.50;;;0.90;97.30;;;;;;4974488;28;20037;-78
2022/12/14 04:21:46;;;;;;;8.88;3.70;;;0.90;97.20;;;;;;4996980;28;20055;-78
2022/12/14 04:27:17;;;;;;;7.28;3.13;;;0.90;97.50;;;;;;5005817;28;20069;-78
2022/12/14 04:29:55;;;;;;;8.43;3.65;;;0.90;97.40;;;;;;4943675;28;20025;-78
2022/12/14 04:32:29;;;;;;;9.07;3.60;;;1.00;97.50;;;;;;4997420;28;20018;-78
2022/12/14 04:35:11;;;;;;;9.77;4.13;;;0.90;97.40;;;;;;5002019;28;20553;-78
2022/12/14 04:37:40;;;;;;;8.50;3.87;;;1.00;97.30;;;;;;4989526;28;20029;-78
2022/12/14 04:40:14;;;;;;;9.25;3.58;;;1.00;97.50;;;;;;5005705;28;20048;-78
2022/12/14 04:42:52;;;;;;;8.82;3.63;;;1.00;97.50;;;;;;4989386;28;20420;-78
2022/12/14 04:45:27;;;;;;;8.23;3.63;;;1.00;97.40;;;;;;4981464;28;20155;-78
2022/12/14 04:48:17;;;;;;;7.70;3.63;;;1.00;97.50;;;;;;5003784;28;20100;-78
2022/12/14 04:50:49;;;;;;;9.03;3.70;;;1.00;97.30;;;;;;5005752;28;20079;-78
2022/12/14 04:53:24;;;;;;;8.43;3.65;;;1.00;97.60;;;;;;5005494;28;20032;-78
2022/12/14 04:56:00;;;;;;;7.53;3.65;;;1.00;97.50;;;;;;5006651;28;20025;-78
2022/12/14 04:58:28;;;;;;;9.68;3.72;;;1.10;97.60;;;;;;5010358;28;20039;-78
2022/12/14 05:01:28;;;;;;;9.57;3.97;;;1.00;97.70;;;;;;4969734;28;20488;-78
2022/12/14 05:04:22;;;;;;;8.57;3.70;;;1.00;97.40;;;;;;4987839;28;20045;-78
2022/12/14 05:06:57;;;;;;;9.02;3.63;;;1.10;97.40;;;;;;4951785;28;20041;-78
2022/12/14 05:09:31;;;;;;;10.18;4.05;;;1.00;97.60;;;;;;5007923;28;20034;-78
2022/12/14 05:12:06;;;;;;;8.98;3.92;;;1.10;97.60;;;;;;5013219;28;20035;-78
2022/12/14 05:15:06;;;;;;;8.50;4.00;;;1.10;97.60;;;;;;4998387;28;20029;-78
2022/12/14 05:17:40;;;;;;;7.90;3.27;;;1.10;97.40;;;;;;4983581;28;20272;-79
2022/12/14 05:20:19;;;;;;;7.82;3.70;;;1.10;97.50;;;;;;4990312;28;20076;-78
2022/12/14 05:22:45;;;;;;;7.95;3.58;;;1.10;97.50;;;;;;5018692;28;20504;-78
2022/12/14 05:25:11;;;;;;;6.75;3.33;;;1.10;97.70;;;;;;5001093;28;20235;-78
2022/12/14 05:27:37;;;;;;;9.87;3.90;;;1.10;97.70;;;;;;4991122;28;20029;-78
2022/12/14 05:30:05;;;;;;;9.25;3.80;;;1.10;97.70;;;;;;5004533;28;20059;-78
2022/12/14 05:32:31;;;;;;;7.90;3.78;;;1.10;97.60;;;;;;4992157;28;20022;-78
2022/12/14 05:34:57;;;;;;;7.25;3.10;;;1.10;97.70;;;;;;4991982;28;20017;-78
2022/12/14 05:37:23;;;;;;;9.50;4.17;;;1.10;97.70;;;;;;5022090;28;20087;-78
2022/12/14 05:39:49;;;;;;;8.02;4.00;;;1.10;97.70;;;;;;5011292;28;20045;-78
2022/12/14 05:42:15;;;;;;;7.43;3.70;;;1.10;97.70;;;;;;5008318;28;20270;-78
2022/12/14 05:44:41;;;;;;;8.43;3.53;;;1.10;97.70;;;;;;4988605;28;20161;-78
2022/12/14 05:47:07;;;;;;;9.60;4.10;;;1.10;97.70;;;;;;4982230;28;20217;-78
2022/12/14 05:49:33;;;;;;;7.90;3.88;;;1.20;97.80;;;;;;4996225;28;20107;-78
2022/12/14 05:51:58;;;;;;;8.67;4.03;;;1.20;98.00;;;;;;5007326;28;20503;-78
2022/12/14 05:54:24;;;;;;;9.82;3.83;;;1.20;97.70;;;;;;5027449;28;20098;-78
2022/12/14 05:56:50;;;;;;;8.80;3.87;;;1.20;97.70;;;;;;5013896;28;20032;-78
2022/12/14 05:59:16;;;;;;;9.13;4.20;;;1.20;97.70;;;;;;4992567;28;20116;-78
2022/12/14 06:01:43;;;;;;;9.70;3.75;;;1.20;97.70;;;;;;5003809;28;20032;-78
2022/12/14 06:04:11;;;;;;;8.77;3.90;;;1.20;97.70;;;;;;4933514;28;1106141;-78
2022/12/14 06:06:37;;;;;;;7.97;3.58;;;1.20;97.70;;;;;;4999680;28;20323;-78
2022/12/14 06:09:06;;;;;;;8.57;3.65;;;1.20;97.80;;;;;;4992794;28;20017;-78
2022/12/14 06:11:35;;;;;;;9.63;4.00;;;1.20;97.70;;;;;;4995485;28;20794;-78
2022/12/14 06:14:01;;;;;;;7.82;3.47;;;1.20;97.70;;;;;;5000618;28;20102;-78
2022/12/14 06:16:27;;;;;;;8.60;3.73;;;1.20;97.70;;;;;;5006699;28;20665;-78
2022/12/14 06:18:55;;;;;;;9.13;3.70;;;1.20;97.70;;;;;;5000074;28;20215;-78
2022/12/14 06:21:24;;;;;;;9.68;3.80;;;1.20;97.70;;;;;;4991494;28;20249;-78
2022/12/14 06:23:50;;;;;;;9.77;3.80;;;1.20;98.00;;;;;;4968161;28;22999;-78
2022/12/14 06:26:16;;;;;;;8.93;3.85;;;1.20;97.70;;;;;;5012473;28;20470;-78
2022/12/14 06:28:42;;;;;;;8.70;4.00;;;1.20;97.80;;;;;;5027631;28;20037;-78
2022/12/14 06:31:17;;;;;;;9.65;3.95;;;1.20;97.80;;;;;;5008388;28;20033;-78
2022/12/14 06:33:43;;;;;;;9.90;4.40;;;1.20;97.60;;;;;;4977013;28;20718;-78
2022/12/14 06:36:20;;;;;;;11.93;4.57;;;1.20;97.70;;;;;;5020132;28;20031;-78
2022/12/14 06:38:46;;;;;;;7.97;3.65;;;1.20;97.50;;;;;;5006143;28;22544;-78
2022/12/14 06:41:11;;;;;;;9.13;4.23;;;1.20;98.00;;;;;;5009396;28;20029;-78
2022/12/14 06:43:37;;;;;;;9.35;4.90;;;1.20;97.80;;;;;;4993657;28;20255;-78
2022/12/14 06:46:11;;;;;;;8.98;4.35;;;1.20;97.80;;;;;;5008231;28;20036;-79
2022/12/14 06:48:37;;;;;;;11.98;4.35;;;1.20;97.60;;;;;;4971958;28;20029;-78
2022/12/14 06:51:03;;;;;;;10.67;4.57;;;1.20;97.80;;;;;;5000017;28;20044;-80
2022/12/14 06:53:29;;;;;;;8.05;3.83;;;1.20;97.80;;;;;;4980925;28;20025;-80
2022/12/14 06:56:10;;;;;;;9.45;4.32;;;1.20;97.80;;;;;;5006677;28;20105;-80
2022/12/14 06:58:36;;;;;;;9.60;4.18;;;1.20;97.60;;;;;;5027862;28;20168;-80
2022/12/14 07:01:04;;;;;;;8.83;3.90;;;1.20;97.70;;;;;;4989541;28;20167;-80
2022/12/14 07:03:30;;;;;;;9.77;4.30;;;1.20;97.70;;;;;;4970766;28;20266;-80
2022/12/14 07:05:57;;;;;;;10.18;4.75;;;1.20;97.70;;;;;;5000692;28;20036;-78
2022/12/14 07:08:24;;;;;;;9.52;4.35;;;1.20;97.60;;;;;;4980544;28;20021;-78
2022/12/14 07:10:51;;;;;;;9.60;3.83;;;1.20;97.60;;;;;;5005905;28;20025;-78
2022/12/14 07:13:17;;;;;;;10.70;4.60;;;1.20;97.60;;;;;;5011451;28;20305;-78
2022/12/14 07:15:43;;;;;;;11.02;4.43;;;1.20;97.60;;;;;;5010263;28;20017;-79
2022/12/14 07:18:09;;;;;;;10.70;4.63;;;1.10;97.50;;;;;;4985783;28;20034;-78
2022/12/14 07:20:35;;;;;;;11.88;4.95;;;1.10;97.40;;;;;;4981397;28;20638;-78
2022/12/14 07:23:01;;;;;;;9.10;3.97;;;1.10;97.30;;;;;;4982614;28;20405;-79
2022/12/14 07:25:27;;;;;;;10.80;4.68;;;1.10;97.20;;;;;;4977931;28;20083;-78
2022/12/14 07:27:52;;;;;;;8.23;3.70;;;1.10;97.00;;;;;;5023463;28;20219;-78
2022/12/14 07:30:18;;;;;;;8.67;3.77;;;1.00;96.90;;;;;;4996331;28;20024;-78
2022/12/14 07:32:44;;;;;;;10.23;3.90;;;1.00;96.80;;;;;;5027149;28;20032;-78
2022/12/14 07:35:10;;;;;;;9.88;4.10;;;1.00;96.70;;;;;;4963966;28;20032;-78
2022/12/14 07:37:36;;;;;;;9.47;3.90;;;0.90;96.60;;;;;;4992266;28;20035;-78
2022/12/14 07:40:03;;;;;;;10.35;4.47;;;0.90;96.50;;;;;;5029355;28;20032;-78
2022/12/14 07:42:29;;;;;;;9.17;3.90;;;0.90;96.50;;;;;;4984618;28;20032;-78
2022/12/14 07:44:54;;;;;;;8.50;4.13;;;0.80;96.50;;;;;;5019021;28;20036;-78
2022/12/14 07:47:20;;;;;;;10.40;4.37;;;0.80;96.50;;;;;;5008605;28;20041;-78
2022/12/14 07:49:46;;;;;;;9.35;3.95;;;0.80;96.50;;;;;;4954340;28;20348;-79
2022/12/14 07:52:12;;;;;;;9.15;4.15;;;0.80;96.60;;;;;;4985009;28;20044;-78
2022/12/14 07:54:37;;;;;;;9.60;4.23;;;0.70;96.60;;;;;;5014909;28;20033;-78
2022/12/14 07:57:03;;;;;;;9.18;4.50;;;0.80;96.70;;;;;;5000809;28;20111;-78
2022/12/14 07:59:29;;;;;;;10.00;4.27;;;0.80;96.70;;;;;;4992957;28;20457;-78
2022/12/14 08:01:55;;;;;;;9.50;4.38;;;0.70;96.70;;;;;;5028192;28;20685;-78
2022/12/14 08:04:20;;;;;;;10.77;4.37;;;0.70;96.80;;;;;;5008476;28;20053;-78
2022/12/14 08:06:47;;;;;;;11.32;4.75;;;0.70;96.90;;;;;;4993386;28;20220;-78
2022/12/14 08:09:14;;;;;;;10.75;4.18;;;0.70;96.90;;;;;;4997068;28;20092;-79
2022/12/14 08:11:40;;;;;;;9.73;4.23;;;0.70;97.30;;;;;;4986871;28;20436;-78
2022/12/14 08:14:10;;;;;;;10.40;4.75;;;0.70;97.10;;;;;;5010663;28;20075;-78
2022/12/14 08:16:36;;;;;;;10.95;5.25;;;0.70;97.20;;;;;;5003725;28;20624;-78
2022/12/14 08:19:02;;;;;;;10.50;4.60;;;0.70;97.40;;;;;;5020487;28;20108;-79
2022/12/14 08:21:28;;;;;;;12.63;5.07;;;0.70;97.50;;;;;;4988185;28;20053;-79
2022/12/14 08:23:56;;;;;;;12.32;4.93;;;0.80;97.60;;;;;;4986108;28;20338;-78
2022/12/14 08:26:23;;;;;;;9.85;4.35;;;0.80;97.60;;;;;;4997367;28;20029;-78
2022/12/14 08:28:49;;;;;;;10.70;5.23;;;0.80;97.70;;;;;;4989601;28;20646;-78
2022/12/14 08:31:21;;;;;;;10.07;4.55;;;0.80;97.80;;;;;;5022205;28;20048;-78
2022/12/14 08:33:47;;;;;;;9.65;4.45;;;0.90;97.80;;;;;;5004700;28;20255;-78
2022/12/14 08:36:33;;;;;;;10.88;4.57;;;0.90;97.80;;;;;;4986673;28;20064;-78
2022/12/14 08:39:03;;;;;;;10.68;4.53;;;0.90;97.90;;;;;;4978513;28;20030;-78
2022/12/14 08:41:29;;;;;;;11.20;5.13;;;0.90;97.70;;;;;;5011162;28;20155;-78
2022/12/14 08:43:57;;;;;;;13.10;5.10;;;0.90;97.80;;;;;;4999667;28;20039;-79
2022/12/14 08:46:24;;;;;;;11.95;5.47;;;1.00;98.00;;;;;;5002199;28;20119;-79
2022/12/14 08:48:51;;;;;;;11.20;5.07;;;1.00;98.10;;;;;;5002395;28;20148;-79
2022/12/14 08:51:18;;;;;;;11.93;5.17;;;1.00;98.20;;;;;;4991847;28;20029;-78
2022/12/14 08:53:46;;;;;;;11.75;4.95;;;1.00;98.30;;;;;;5033320;28;20028;-78
2022/12/14 08:56:15;;;;;;;12.32;5.15;;;1.10;98.70;;;;;;4983921;28;20036;-79
2022/12/14 08:58:42;;;;;;;13.30;5.80;;;1.10;98.90;;;;;;5006477;28;20110;-79
2022/12/14 09:01:18;;;;;;;13.63;6.03;;;1.20;99.30;;;;;;5022904;28;20044;-79
2022/12/14 09:03:45;;;;;;;13.57;5.83;;;1.30;99.50;;;;;;5027567;28;20026;-79
2022/12/14 09:06:17;;;;;;;12.20;5.43;;;1.40;99.80;;;;;;5010045;28;20049;-78
2022/12/14 09:08:43;;;;;;;12.68;5.57;;;1.40;99.90;;;;;;5029747;28;20029;-79
2022/12/14 09:11:14;;;;;;;12.43;5.50;;;1.50;99.90;;;;;;4999341;28;20020;-78
2022/12/14 09:13:40;;;;;;;11.65;5.93;;;1.60;99.90;;;;;;4995467;28;20311;-79
2022/12/14 09:16:09;;;;;;;11.27;5.20;;;1.70;99.90;;;;;;5028349;28;20094;-79
2022/12/14 09:18:35;;;;;;;13.80;5.78;;;1.70;99.90;;;;;;5028949;28;20033;-79
2022/12/14 09:21:01;;;;;;;11.95;5.47;;;1.80;99.90;;;;;;4984121;28;20528;-79
2022/12/14 09:23:29;;;;;;;12.30;5.67;;;1.90;99.90;;;;;;5025437;28;20052;-79
2022/12/14 09:26:15;;;;;;;11.02;5.30;;;1.90;99.90;;;;;;4981150;28;20039;-79
2022/12/14 09:28:45;;;;;;;14.27;5.80;;;2.00;99.90;;;;;;4974181;28;20025;-79
2022/12/14 09:31:13;;;;;;;11.25;5.80;;;2.20;99.90;;;;;;5015333;28;20444;-79
2022/12/14 09:33:39;;;;;;;12.68;6.43;;;2.40;99.90;;;;;;4993540;28;20036;-79
2022/12/14 09:36:07;;;;;;;11.53;5.60;;;2.60;99.90;;;;;;4987803;28;20056;-80
2022/12/14 09:38:35;;;;;;;12.32;6.20;;;3.00;99.90;;;;;;5027655;28;20400;-80
2022/12/14 09:41:18;;;;;;;11.02;5.88;;;3.50;99.90;;;;;;4997070;28;20421;-80
2022/12/14 09:44:15;;;;;;;11.10;5.97;;;4.00;99.90;;;;;;4994502;28;20067;-81
2022/12/14 09:47:05;;;;;;;10.23;5.57;;;4.70;99.90;;;;;;4992502;28;20681;-81
2022/12/14 09:49:39;;;;;;;10.47;5.90;;;5.40;99.90;;;;;;5009672;28;20051;-81
2022/12/14 09:52:09;;;;;;;10.35;6.20;;;5.90;99.90;;;;;;5011169;28;20474;-81
2022/12/14 09:54:37;;;;;;;10.20;5.57;;;6.50;99.90;;;;;;5013767;28;20032;-81
2022/12/14 09:57:10;;;;;;;10.20;5.68;;;7.00;99.90;;;;;;4951689;28;20071;-81
2022/12/14 09:59:36;;;;;;;9.75;5.90;;;7.50;99.90;;;;;;5031455;28;20016;-81
2022/12/14 10:02:34;;;;;;;9.90;6.33;;;7.90;99.90;;;;;;4997238;28;20300;-81
2022/12/14 10:05:35;;;;;;;9.90;6.10;;;8.30;99.90;;;;;;4979860;28;20731;-81
2022/12/14 10:08:17;;;;;;;10.10;6.10;;;8.70;99.90;;;;;;4967449;28;20600;-81
2022/12/14 10:11:01;;;;;;;9.82;5.95;;;9.10;99.90;;;;;;5014910;28;20095;-81
2022/12/14 10:13:50;;;;;;;9.57;5.97;;;9.50;99.90;;;;;;4958182;28;20484;-81
2022/12/14 10:16:40;;;;;;;9.93;5.78;;;9.80;99.90;;;;;;4988689;28;20032;-81
2022/12/14 10:19:20;;;;;;;10.40;6.22;;;10.00;99.90;;;;;;4986543;28;20402;-82
2022/12/14 10:22:01;;;;;;;10.18;5.70;;;10.20;99.90;;;;;;5016242;28;20493;-82
2022/12/14 10:24:34;;;;;;;10.40;6.28;;;10.50;99.90;;;;;;4957108;28;20024;-82
2022/12/14 10:27:00;;;;;;;11.07;6.47;;;10.60;99.90;;;;;;5016471;28;20117;-81
2022/12/14 10:29:46;;;;;;;12.05;6.60;;;10.80;99.90;;;;;;4984381;28;20507;-81
2022/12/14 10:32:34;;;;;;;10.38;6.45;;;11.00;99.90;;;;;;4987792;28;20051;-81
2022/12/14 10:35:16;;;;;;;10.90;6.68;;;11.20;99.90;;;;;;4984563;28;20149;-81
2022/12/14 10:37:52;;;;;;;11.23;6.78;;;11.40;99.90;;;;;;4963927;28;20033;-81
2022/12/14 10:40:31;;;;;;;9.53;5.93;;;11.60;99.90;;;;;;5032047;28;20032;-81
2022/12/14 10:43:24;;;;;;;9.95;6.50;;;11.80;99.90;;;;;;5039414;28;20053;-81
2022/12/14 10:46:01;;;;;;;9.85;6.05;;;12.00;99.90;;;;;;4995585;28;20226;-81
2022/12/14 10:48:27;;;;;;;11.32;6.50;;;12.10;99.90;;;;;;5009286;28;20056;-81
2022/12/14 10:51:00;;;;;;;9.67;6.50;;;12.30;99.90;;;;;;4990678;28;20129;-81
2022/12/14 10:53:43;;;;;;;11.75;7.07;;;12.50;99.90;;;;;;4992407;28;20064;-81
2022/12/14 10:56:16;;;;;;;10.23;6.32;;;12.60;98.20;;;;;;5005338;28;20478;-81
2022/12/14 10:58:42;;;;;;;11.50;7.05;;;12.70;99.80;;;;;;5010653;28;20303;-81
2022/12/14 11:01:13;;;;;;;11.20;6.60;;;12.90;99.90;;;;;;4987957;28;20029;-81
2022/12/14 11:03:40;;;;;;;10.52;6.85;;;13.00;99.80;;;;;;5008480;28;20032;-81
2022/12/14 11:06:16;;;;;;;10.93;6.93;;;13.20;99.90;;;;;;5014533;28;20034;-81
2022/12/14 11:08:47;;;;;;;11.17;6.93;;;13.40;99.40;;;;;;4992535;28;20280;-82
2022/12/14 11:11:19;;;;;;;11.80;6.95;;;13.50;99.90;;;;;;4993256;28;20025;-80
2022/12/14 11:14:14;;;;;;;9.95;6.70;;;13.70;99.30;;;;;;5004378;28;20029;-80
2022/12/14 11:16:40;;;;;;;10.73;6.68;;;13.90;96.00;;;;;;5000575;28;20112;-80
2022/12/14 11:19:17;;;;;;;11.45;7.15;;;14.10;99.90;;;;;;4989094;28;20018;-80
2022/12/14 11:21:43;;;;;;;11.03;6.63;;;14.30;96.10;;;;;;4998440;28;20410;-80
2022/12/14 11:24:22;;;;;;;10.15;6.38;;;14.40;98.80;;;;;;5018859;28;20029;-79
2022/12/14 11:26:48;;;;;;;12.63;6.60;;;14.50;96.30;;;;;;5007586;28;20251;-79
2022/12/14 11:29:36;;;;;;;11.23;6.43;;;14.70;99.50;;;;;;5002342;28;20489;-79
2022/12/14 11:32:03;;;;;;;10.45;7.03;;;14.80;95.20;;;;;;5018582;28;20025;-79
2022/12/14 11:34:38;;;;;;;10.73;6.97;;;15.00;98.40;;;;;;5024377;28;20155;-79
2022/12/14 11:37:24;;;;;;;10.63;6.82;;;15.10;96.00;;;;;;5007380;28;20186;-80
2022/12/14 11:39:52;;;;;;;10.68;6.78;;;15.20;93.20;;;;;;4984746;28;20033;-79
2022/12/14 11:42:19;;;;;;;10.07;6.68;;;15.30;96.40;;;;;;5030903;28;20017;-79
2022/12/14 11:44:47;;;;;;;10.77;6.65;;;15.30;97.20;;;;;;4982762;28;20103;-80
2022/12/14 11:47:25;;;;;;;11.17;6.87;;;15.40;97.10;;;;;;5014948;28;20422;-79
2022/12/14 11:49:53;;;;;;;10.32;6.63;;;15.50;96.70;;;;;;5004155;28;20314;-80
2022/12/14 11:52:38;;;;;;;11.50;7.30;;;15.50;96.60;;;;;;5005399;28;20017;-80
2022/12/14 11:55:10;;;;;;;11.45;6.80;;;15.60;93.90;;;;;;4979079;28;20052;-80
2022/12/14 11:57:59;;;;;;;11.02;7.10;;;15.50;93.40;;;;;;4985014;28;20041;-80
2022/12/14 12:00:27;;;;;;;10.97;6.77;;;15.30;90.80;;;;;;4987437;28;20112;-80
2022/12/14 12:02:58;;;;;;;12.25;6.75;;;15.10;94.00;;;;;;5007115;28;20756;-80
2022/12/14 12:05:26;;;;;;;11.13;6.85;;;15.00;93.10;;;;;;5017880;28;20140;-80
2022/12/14 12:07:58;;;;;;;10.93;6.50;;;14.80;94.40;;;;;;5002953;28;20029;-80
2022/12/14 12:10:39;;;;;;;10.00;6.10;;;14.60;93.90;;;;;;5002651;28;20017;-80
2022/12/14 12:13:16;;;;;;;10.30;6.47;;;14.40;94.20;;;;;;5015360;28;20123;-80
2022/12/14 12:15:51;;;;;;;10.13;6.55;;;14.00;92.50;;;;;;4971413;28;20029;-80
2022/12/14 12:18:30;;;;;;;11.20;6.28;;;13.70;92.30;;;;;;5014961;28;20075;-80
2022/12/14 12:21:01;;;;;;;10.02;6.35;;;13.30;90.90;;;;;;5027281;28;20033;-80
2022/12/14 12:23:47;;;;;;;10.68;6.30;;;13.00;92.70;;;;;;5001589;28;20033;-80
2022/12/14 12:26:27;;;;;;;10.53;6.27;;;12.70;92.40;;;;;;4992692;28;20117;-79
2022/12/14 12:29:17;;;;;;;10.50;6.68;;;12.60;93.80;;;;;;5006629;28;20037;-79
2022/12/14 12:31:55;;;;;;;9.63;5.95;;;12.40;93.20;;;;;;4984075;28;20102;-80
2022/12/14 12:34:30;;;;;;;10.68;6.35;;;12.30;93.60;;;;;;5012631;28;20087;-80
2022/12/14 12:36:59;;;;;;;11.05;6.63;;;12.20;93.40;;;;;;4999347;28;20095;-80
2022/12/14 12:39:26;;;;;;;9.40;6.03;;;12.00;93.90;;;;;;5014383;28;20025;-80
2022/12/14 12:42:21;;;;;;;12.85;6.68;;;11.90;94.30;;;;;;4993635;28;20052;-80
2022/12/14 12:45:06;;;;;;;9.82;6.30;;;11.80;92.60;;;;;;5016968;28;20082;-80
2022/12/14 12:47:41;;;;;;;10.75;6.05;;;11.70;93.00;;;;;;4999269;28;20037;-79
2022/12/14 12:50:17;;;;;;;10.27;6.50;;;11.60;93.60;;;;;;4999440;28;20580;-80
2022/12/14 12:53:00;;;;;;;10.20;6.10;;;11.40;92.80;;;;;;4987017;28;20014;-79
2022/12/14 12:55:28;;;;;;;10.38;5.80;;;11.30;92.10;;;;;;5018635;28;20049;-79
2022/12/14 12:57:57;;;;;;;9.50;5.95;;;11.10;94.70;;;;;;4993032;28;20037;-79
2022/12/14 13:00:26;;;;;;;10.52;6.00;;;11.00;95.40;;;;;;5037285;28;20091;-79
2022/12/14 13:02:55;;;;;;;10.40;6.28;;;11.10;96.20;;;;;;4985310;28;20045;-79
2022/12/14 13:05:24;;;;;;;9.47;5.87;;;11.20;97.40;;;;;;5005720;28;20069;-79
2022/12/14 13:08:05;;;;;;;13.30;6.13;;;11.30;97.30;;;;;;5014542;28;20061;-79
2022/12/14 13:10:36;;;;;;;9.73;6.38;;;11.40;96.20;;;;;;5020749;28;20055;-79
2022/12/14 13:13:01;;;;;;;10.52;6.10;;;11.60;97.90;;;;;;4994790;28;20418;-79
2022/12/14 13:15:30;;;;;;;10.67;5.63;;;11.80;98.90;;;;;;4994333;28;20329;-79
2022/12/14 13:18:16;;;;;;;10.75;6.18;;;12.10;99.20;;;;;;4989735;28;20033;-79
2022/12/14 13:20:43;;;;;;;9.75;6.10;;;12.30;95.60;;;;;;5038097;28;20048;-80
2022/12/14 13:23:10;;;;;;;11.15;6.75;;;12.60;98.40;;;;;;5012015;28;20040;-79
2022/12/14 13:26:06;;;;;;;9.57;6.10;;;12.70;97.90;;;;;;5027544;28;20025;-79
2022/12/14 13:28:53;;;;;;;9.60;5.90;;;12.90;94.40;;;;;;4981324;28;20218;-80
2022/12/14 13:31:35;;;;;;;9.82;6.45;;;13.00;95.90;;;;;;4959846;28;20040;-79